Terminal Aerodrome Forecast
Issued by NWS

Home | Current Version | Previous Version | Graphics & Text | Print | Product List | Glossary On
Versions: 1 2 3 4 5 6 7 8 9 10 11 12 13 14 15
000
FTUS43 KGRB 181720
TAFRHI
TAF
KRHI 181720Z 1818/1918 29006KT P6SM SCT250
     FM190700 VRB03KT 3SM BR SCT100
     FM191600 16005KT P6SM SCT250=

USA.gov is the U.S. government's official web portal to all federal, state and local government web resources and services.